createdAt,value
2019-03-24T00:01:59.064Z,66.89
2019-03-24T00:04:25.566Z,66.85
2019-03-24T00:06:51.757Z,66.89
2019-03-24T00:09:17.931Z,67.05
2019-03-24T00:11:44.187Z,67.16
2019-03-24T00:14:10.277Z,67.14
2019-03-24T00:16:36.557Z,67.11
2019-03-24T00:19:03.502Z,67.21
2019-03-24T00:21:30.113Z,67.27
2019-03-24T00:23:56.317Z,67.31
2019-03-24T00:26:23.516Z,67.30
2019-03-24T00:28:49.863Z,67.56
2019-03-24T00:31:15.958Z,67.60
2019-03-24T00:33:42.202Z,67.55
2019-03-24T00:36:08.293Z,67.67
2019-03-24T00:38:34.521Z,67.66
2019-03-24T00:41:00.638Z,67.86
2019-03-24T00:43:28.001Z,67.90
2019-03-24T00:45:54.110Z,68.15
2019-03-24T00:48:20.568Z,68.08
2019-03-24T00:50:46.721Z,68.18
2019-03-24T00:53:12.960Z,68.35
2019-03-24T00:55:39.078Z,68.45
2019-03-24T00:58:05.489Z,68.57
2019-03-24T01:00:43.685Z,68.54
2019-03-24T01:03:09.926Z,68.48
2019-03-24T01:05:36.117Z,68.56
2019-03-24T01:08:02.434Z,68.60
2019-03-24T01:10:28.564Z,68.57
2019-03-24T01:12:55.088Z,68.53
2019-03-24T01:15:21.216Z,68.60
2019-03-24T01:17:47.453Z,68.66
2019-03-24T01:20:13.763Z,68.63
2019-03-24T01:22:39.960Z,68.68
2019-03-24T01:25:06.436Z,68.74
2019-03-24T01:27:32.728Z,68.94
2019-03-24T01:29:59.005Z,68.94
2019-03-24T01:32:25.379Z,69.01
2019-03-24T01:34:51.530Z,68.98
2019-03-24T01:37:17.859Z,68.99
2019-03-24T01:39:44.062Z,69.10
2019-03-24T01:42:10.332Z,68.96
2019-03-24T01:44:36.491Z,69.03
2019-03-24T01:47:02.968Z,69.07
2019-03-24T01:49:29.420Z,69.07
2019-03-24T01:51:55.587Z,69.03
2019-03-24T01:54:21.969Z,69.11
2019-03-24T01:56:48.120Z,69.05
2019-03-24T01:59:15.312Z,69.08
2019-03-24T02:01:41.489Z,69.08
2019-03-24T02:04:07.740Z,69.15
2019-03-24T02:06:34.957Z,69.24
2019-03-24T02:09:01.104Z,69.41
2019-03-24T02:11:27.475Z,69.48
2019-03-24T02:13:53.628Z,69.44
2019-03-24T02:16:19.797Z,69.52
2019-03-24T02:18:45.974Z,69.51
2019-03-24T02:21:12.361Z,69.55
2019-03-24T02:23:38.586Z,69.46
2019-03-24T02:26:04.697Z,69.46
2019-03-24T02:28:30.951Z,69.56
2019-03-24T02:30:57.264Z,69.57
2019-03-24T02:33:23.578Z,69.71
2019-03-24T02:35:49.678Z,69.65
2019-03-24T02:38:15.891Z,69.72
2019-03-24T02:40:42.003Z,69.75
2019-03-24T02:43:08.189Z,69.82
2019-03-24T02:45:34.412Z,69.79
2019-03-24T02:48:00.589Z,69.82
2019-03-24T02:50:26.739Z,69.80
2019-03-24T02:52:53.150Z,69.90
2019-03-24T02:55:19.259Z,69.85
2019-03-24T02:57:45.456Z,69.86
2019-03-24T03:00:11.914Z,69.84
2019-03-24T03:02:38.183Z,69.90
2019-03-24T03:05:06.536Z,69.91
2019-03-24T03:07:32.853Z,69.95
2019-03-24T03:09:58.968Z,69.97
2019-03-24T03:12:25.286Z,70.11
2019-03-24T03:14:51.508Z,70.13
2019-03-24T03:17:18.732Z,70.18
2019-03-24T03:19:44.857Z,70.17
2019-03-24T03:22:11.072Z,70.12
2019-03-24T03:24:37.180Z,70.29
2019-03-24T03:27:03.705Z,70.29
2019-03-24T03:29:29.886Z,70.36
2019-03-24T03:31:56.099Z,70.37
2019-03-24T03:34:22.224Z,70.45
2019-03-24T03:36:48.445Z,70.43
2019-03-24T03:39:14.622Z,70.49
2019-03-24T03:41:41.027Z,70.61
2019-03-24T03:44:07.361Z,70.65
2019-03-24T03:46:33.634Z,70.64
2019-03-24T03:48:59.779Z,70.72
2019-03-24T03:51:26.051Z,70.81
2019-03-24T03:53:52.332Z,70.83
2019-03-24T03:56:18.584Z,70.92
2019-03-24T03:58:44.860Z,70.93
2019-03-24T04:01:11.227Z,70.98
2019-03-24T04:03:37.506Z,71.08
2019-03-24T04:06:03.946Z,71.10
2019-03-24T04:08:30.210Z,71.16
2019-03-24T04:10:56.453Z,71.01
2019-03-24T04:13:22.756Z,70.92
2019-03-24T04:15:49.209Z,70.98
2019-03-24T04:18:15.495Z,71.01
2019-03-24T04:20:41.853Z,70.93
2019-03-24T04:23:08.047Z,71.21
2019-03-24T04:25:34.205Z,71.47
2019-03-24T04:28:01.531Z,71.55
2019-03-24T04:30:27.757Z,71.65
2019-03-24T04:32:53.982Z,71.77
2019-03-24T04:35:20.145Z,71.79
2019-03-24T04:37:46.411Z,71.81
2019-03-24T04:40:12.624Z,71.82
2019-03-24T04:42:38.846Z,71.92
2019-03-24T04:45:05.511Z,71.99
2019-03-24T04:47:31.794Z,71.96
2019-03-24T04:49:58.003Z,71.96
2019-03-24T04:52:24.234Z,72.00
2019-03-24T04:54:50.411Z,71.99
2019-03-24T04:57:16.602Z,72.09
2019-03-24T04:59:42.882Z,72.07
2019-03-24T05:02:09.103Z,72.09
2019-03-24T05:04:35.290Z,72.19
2019-03-24T05:07:01.945Z,72.16
2019-03-24T05:09:28.782Z,72.26
2019-03-24T05:11:55.053Z,72.36
2019-03-24T05:14:21.224Z,72.37
2019-03-24T05:16:47.416Z,72.41
2019-03-24T05:19:13.533Z,72.50
2019-03-24T05:21:39.754Z,72.62
2019-03-24T05:24:05.991Z,72.67
2019-03-24T05:26:32.210Z,72.75
2019-03-24T05:28:58.311Z,72.78
2019-03-24T05:31:24.559Z,72.87
2019-03-24T05:33:50.680Z,72.92
2019-03-24T05:36:16.892Z,72.95
2019-03-24T05:38:43.115Z,73.02
2019-03-24T05:41:09.327Z,73.13
2019-03-24T05:43:35.425Z,73.14
2019-03-24T05:46:01.657Z,72.98
2019-03-24T05:48:27.762Z,72.66
2019-03-24T05:50:53.973Z,73.00
2019-03-24T05:53:20.149Z,73.23
2019-03-24T05:55:46.374Z,73.22
2019-03-24T05:58:12.540Z,72.86
2019-03-24T06:00:38.717Z,72.99
2019-03-24T06:03:04.921Z,72.73
2019-03-24T06:05:31.187Z,72.81
2019-03-24T06:07:57.469Z,72.90
2019-03-24T06:10:23.696Z,72.85
2019-03-24T06:12:49.810Z,73.08
2019-03-24T06:15:16.025Z,72.85
2019-03-24T06:17:47.862Z,73.09
2019-03-24T06:20:10.441Z,73.49
2019-03-24T06:22:36.540Z,73.87
2019-03-24T06:25:04.974Z,74.04
2019-03-24T06:27:31.136Z,74.20
2019-03-24T06:29:57.403Z,74.10
2019-03-24T06:32:23.632Z,73.93
2019-03-24T06:34:49.808Z,73.67
2019-03-24T06:37:16.074Z,73.29
2019-03-24T06:39:42.355Z,73.11
2019-03-24T06:42:08.595Z,72.99
2019-03-24T06:44:34.765Z,72.83
2019-03-24T06:47:00.991Z,72.70
2019-03-24T06:49:27.109Z,72.63
2019-03-24T06:51:53.491Z,72.46
2019-03-24T06:54:19.671Z,72.37
2019-03-24T06:56:45.893Z,72.37
2019-03-24T06:59:12.057Z,72.38
2019-03-24T07:01:38.349Z,72.37
2019-03-24T07:04:04.686Z,72.42
2019-03-24T07:06:30.938Z,72.37
2019-03-24T07:08:57.260Z,72.34
2019-03-24T07:11:23.361Z,72.30
2019-03-24T07:13:49.567Z,72.37
2019-03-24T07:16:15.785Z,72.27
2019-03-24T07:18:41.993Z,72.13
2019-03-24T07:21:08.216Z,71.85
2019-03-24T07:23:34.424Z,72.04
2019-03-24T07:26:00.815Z,72.09
2019-03-24T07:28:27.032Z,72.29
2019-03-24T07:30:53.363Z,72.22
2019-03-24T07:33:19.879Z,71.74
2019-03-24T07:35:46.195Z,71.48
2019-03-24T07:38:12.305Z,71.18
2019-03-24T07:40:38.510Z,71.08
2019-03-24T07:43:04.621Z,70.96
2019-03-24T07:45:31.042Z,70.56
2019-03-24T07:47:57.384Z,70.72
2019-03-24T07:50:23.652Z,70.61
2019-03-24T07:52:50.022Z,70.50
2019-03-24T07:55:16.408Z,70.15
2019-03-24T07:57:42.792Z,70.12
2019-03-24T08:00:10.641Z,70.17
2019-03-24T08:02:36.825Z,70.08
2019-03-24T08:05:04.509Z,69.89
2019-03-24T08:07:30.808Z,69.82
2019-03-24T08:09:57.174Z,69.72
2019-03-24T08:12:23.436Z,69.56
2019-03-24T08:14:49.717Z,69.06
2019-03-24T08:17:15.990Z,68.72
2019-03-24T08:19:42.115Z,68.87
2019-03-24T08:22:08.333Z,68.55
2019-03-24T08:24:34.570Z,68.03
2019-03-24T08:27:00.800Z,67.95
2019-03-24T08:29:26.909Z,67.40
2019-03-24T08:31:53.127Z,67.24
2019-03-24T08:34:19.282Z,67.13
2019-03-24T08:36:45.531Z,66.80
2019-03-24T08:39:11.878Z,66.94
2019-03-24T08:41:38.879Z,66.53
2019-03-24T08:44:05.218Z,66.55
2019-03-24T08:46:31.345Z,66.10
2019-03-24T08:48:57.547Z,65.37
2019-03-24T08:51:23.712Z,65.15
2019-03-24T08:53:49.962Z,64.93
2019-03-24T08:56:16.295Z,64.97
2019-03-24T08:58:42.406Z,64.93
2019-03-24T09:01:08.606Z,64.67
2019-03-24T09:03:34.764Z,64.45
2019-03-24T09:06:01.175Z,64.09
2019-03-24T09:08:27.389Z,63.73
2019-03-24T09:10:53.690Z,63.79
2019-03-24T09:13:19.841Z,63.92
2019-03-24T09:15:46.099Z,63.72
2019-03-24T09:18:12.377Z,63.75
2019-03-24T09:20:41.872Z,63.21
2019-03-24T09:23:06.600Z,63.45
2019-03-24T09:25:32.875Z,63.38
2019-03-24T09:27:59.098Z,62.44
2019-03-24T09:30:27.269Z,63.08
2019-03-24T09:32:55.116Z,63.74
2019-03-24T09:35:21.867Z,63.90
2019-03-24T09:37:48.023Z,63.68
2019-03-24T09:40:18.732Z,63.49
2019-03-24T09:42:45.035Z,63.49
2019-03-24T09:45:11.361Z,63.69
2019-03-24T09:47:37.643Z,63.47
2019-03-24T09:50:04.736Z,63.29
2019-03-24T09:52:30.995Z,63.08
2019-03-24T09:54:57.226Z,62.89
2019-03-24T09:57:23.398Z,62.78
2019-03-24T09:59:49.614Z,63.35
2019-03-24T10:02:15.794Z,64.02
2019-03-24T10:04:42.066Z,64.33
2019-03-24T10:07:08.356Z,64.54
2019-03-24T10:09:34.570Z,64.69
2019-03-24T10:12:00.674Z,64.87
2019-03-24T10:14:26.895Z,64.90
2019-03-24T10:16:53.005Z,65.17
2019-03-24T10:19:19.219Z,65.29
2019-03-24T10:21:45.379Z,65.43
2019-03-24T10:24:11.769Z,65.50
2019-03-24T10:26:37.948Z,65.54
2019-03-24T10:29:04.126Z,65.59
2019-03-24T10:31:30.406Z,65.76
2019-03-24T10:33:56.587Z,65.72
2019-03-24T10:36:22.813Z,65.90
2019-03-24T10:38:48.960Z,65.97
2019-03-24T10:41:15.196Z,65.99
2019-03-24T10:43:41.350Z,65.83
2019-03-24T10:46:07.582Z,65.87
2019-03-24T10:48:34.066Z,65.85
2019-03-24T10:51:00.401Z,65.95
2019-03-24T10:53:26.500Z,65.78
2019-03-24T10:55:52.808Z,65.78
2019-03-24T10:58:18.930Z,65.64
2019-03-24T11:00:45.414Z,65.64
2019-03-24T11:03:11.835Z,65.57
2019-03-24T11:05:39.056Z,65.52
2019-03-24T11:08:05.446Z,65.68
2019-03-24T11:10:31.814Z,66.04
2019-03-24T11:12:57.953Z,66.18
2019-03-24T11:15:24.139Z,66.46
2019-03-24T11:17:50.278Z,66.67
2019-03-24T11:20:16.580Z,66.62
2019-03-24T11:22:42.743Z,66.72
2019-03-24T11:25:09.521Z,66.71
2019-03-24T11:27:36.085Z,66.85
2019-03-24T11:30:03.543Z,66.92
2019-03-24T11:32:30.115Z,66.88
2019-03-24T11:34:56.340Z,67.00
2019-03-24T11:37:22.467Z,67.06
2019-03-24T11:39:48.686Z,66.99
2019-03-24T11:42:14.801Z,66.81
2019-03-24T11:44:41.080Z,66.87
2019-03-24T11:47:07.294Z,66.61
2019-03-24T11:49:33.464Z,66.63
2019-03-24T11:51:59.677Z,66.46
2019-03-24T11:54:25.849Z,66.41
2019-03-24T11:56:52.058Z,66.51
2019-03-24T11:59:18.181Z,66.59
2019-03-24T12:01:44.519Z,66.64
2019-03-24T12:04:10.806Z,66.51
2019-03-24T12:06:37.098Z,66.36
2019-03-24T12:09:04.963Z,66.23
2019-03-24T12:11:31.426Z,66.19
2019-03-24T12:13:57.705Z,66.33
2019-03-24T12:16:24.078Z,66.40
2019-03-24T12:18:50.394Z,66.35
2019-03-24T12:21:16.740Z,66.39
2019-03-24T12:23:42.967Z,66.38
2019-03-24T12:26:09.199Z,66.30
2019-03-24T12:28:35.387Z,66.31
2019-03-24T12:31:01.735Z,66.39
2019-03-24T12:33:27.885Z,66.41
2019-03-24T12:35:54.052Z,66.28
2019-03-24T12:38:20.242Z,66.13
2019-03-24T12:40:47.205Z,66.09
2019-03-24T12:43:19.537Z,65.93
2019-03-24T12:45:42.155Z,65.87
2019-03-24T12:48:08.518Z,65.68
2019-03-24T12:50:35.850Z,65.65
2019-03-24T12:53:02.206Z,65.53
2019-03-24T12:55:28.340Z,65.36
2019-03-24T12:57:54.650Z,65.21
2019-03-24T13:00:36.044Z,65.27
2019-03-24T13:03:02.845Z,65.25
2019-03-24T13:05:29.068Z,65.30
2019-03-24T13:07:58.804Z,65.52
2019-03-24T13:10:24.996Z,65.53
2019-03-24T13:12:51.113Z,65.42
2019-03-24T13:15:17.323Z,65.41
2019-03-24T13:17:43.448Z,65.33
2019-03-24T13:20:19.777Z,65.51
2019-03-24T13:22:38.202Z,65.56
2019-03-24T13:25:05.530Z,65.74
2019-03-24T13:27:31.644Z,65.65
2019-03-24T13:29:57.865Z,65.67
2019-03-24T13:32:23.977Z,65.60
2019-03-24T13:34:50.179Z,65.52
2019-03-24T13:37:16.495Z,65.39
2019-03-24T13:39:42.693Z,65.24
2019-03-24T13:42:08.972Z,65.21
2019-03-24T13:44:35.224Z,65.14
2019-03-24T13:47:01.498Z,64.98
2019-03-24T13:49:27.705Z,64.92
2019-03-24T13:51:53.837Z,64.81
2019-03-24T13:54:20.147Z,64.73
2019-03-24T13:56:46.246Z,64.53
2019-03-24T13:59:12.505Z,64.09
2019-03-24T14:01:38.771Z,64.05
2019-03-24T14:04:04.974Z,64.26
2019-03-24T14:06:31.095Z,64.25
2019-03-24T14:08:58.314Z,64.18
2019-03-24T14:11:24.525Z,64.03
2019-03-24T14:13:50.736Z,64.19
2019-03-24T14:16:17.063Z,64.27
2019-03-24T14:18:43.428Z,64.46
2019-03-24T14:21:09.812Z,64.40
2019-03-24T14:23:36.176Z,64.40
2019-03-24T14:26:02.705Z,64.58
2019-03-24T14:28:28.911Z,64.78
2019-03-24T14:30:55.231Z,64.72
2019-03-24T14:33:21.526Z,64.68
2019-03-24T14:35:47.731Z,64.60
2019-03-24T14:38:13.844Z,64.71
2019-03-24T14:40:40.195Z,64.71
2019-03-24T14:43:06.623Z,64.75
2019-03-24T14:45:32.952Z,64.82
2019-03-24T14:48:00.467Z,64.88
2019-03-24T14:50:26.677Z,65.11
2019-03-24T14:52:52.825Z,65.11
2019-03-24T14:55:19.057Z,65.21
2019-03-24T14:57:45.176Z,65.27
2019-03-24T15:00:11.826Z,65.27
2019-03-24T15:02:40.767Z,65.22
2019-03-24T15:05:06.772Z,65.26
2019-03-24T15:07:33.041Z,65.24
2019-03-24T15:09:59.214Z,65.15
2019-03-24T15:12:25.352Z,65.20
2019-03-24T15:14:51.671Z,65.19
2019-03-24T15:17:17.838Z,65.17
2019-03-24T15:19:44.024Z,65.27
2019-03-24T15:22:10.223Z,65.20
2019-03-24T15:24:36.467Z,65.09
2019-03-24T15:27:03.894Z,65.08
2019-03-24T15:29:31.884Z,65.24
2019-03-24T15:31:58.028Z,65.37
2019-03-24T15:34:24.424Z,65.57
2019-03-24T15:36:51.455Z,65.53
2019-03-24T15:39:18.654Z,65.55
2019-03-24T15:41:45.064Z,65.67
2019-03-24T15:44:11.347Z,65.66
2019-03-24T15:46:37.586Z,65.59
2019-03-24T15:49:03.824Z,65.66
2019-03-24T15:51:30.169Z,65.75
2019-03-24T15:53:56.659Z,65.62
2019-03-24T15:56:23.213Z,65.65
2019-03-24T15:58:49.444Z,65.63
2019-03-24T16:01:15.709Z,65.64
2019-03-24T16:03:41.982Z,65.41
2019-03-24T16:06:08.309Z,65.54
2019-03-24T16:08:34.444Z,65.44
2019-03-24T16:11:00.732Z,65.37
2019-03-24T16:13:27.115Z,65.33
2019-03-24T16:15:54.586Z,65.27
2019-03-24T16:18:20.890Z,65.15
2019-03-24T16:20:47.194Z,65.20
2019-03-24T16:23:13.596Z,65.13
2019-03-24T16:25:39.886Z,65.20
2019-03-24T16:28:06.314Z,65.20
2019-03-24T16:30:32.439Z,64.79
2019-03-24T16:32:58.747Z,64.92
2019-03-24T16:35:25.093Z,65.08
2019-03-24T16:37:51.358Z,65.12
2019-03-24T16:40:17.470Z,65.19
2019-03-24T16:42:43.766Z,65.28
2019-03-24T16:45:10.158Z,65.36
2019-03-24T16:47:36.390Z,65.42
2019-03-24T16:50:04.902Z,65.92
2019-03-24T16:52:31.146Z,66.19
2019-03-24T16:54:57.339Z,66.38
2019-03-24T16:57:24.742Z,66.06
2019-03-24T16:59:50.915Z,65.77
2019-03-24T17:02:17.301Z,65.78
2019-03-24T17:04:43.484Z,66.01
2019-03-24T17:07:09.852Z,66.34
2019-03-24T17:09:36.032Z,66.26
2019-03-24T17:12:04.756Z,66.13
2019-03-24T17:14:31.040Z,66.06
2019-03-24T17:16:58.175Z,66.29
2019-03-24T17:19:24.432Z,66.34
2019-03-24T17:21:50.706Z,66.57
2019-03-24T17:24:16.952Z,66.63
2019-03-24T17:26:43.299Z,66.65
2019-03-24T17:29:09.569Z,66.66
2019-03-24T17:31:38.190Z,66.74
2019-03-24T17:34:04.562Z,67.39
2019-03-24T17:36:30.831Z,66.89
2019-03-24T17:38:57.052Z,66.87
2019-03-24T17:41:23.362Z,67.01
2019-03-24T17:43:49.629Z,67.23
2019-03-24T17:46:16.323Z,67.27
2019-03-24T17:48:42.534Z,67.73
2019-03-24T17:51:08.841Z,68.06
2019-03-24T17:53:35.524Z,68.30
2019-03-24T17:56:02.468Z,68.29
2019-03-24T17:58:28.721Z,68.64
2019-03-24T18:00:56.690Z,68.73
2019-03-24T18:03:22.853Z,69.08
2019-03-24T18:05:50.120Z,69.12
2019-03-24T18:08:16.271Z,68.97
2019-03-24T18:10:42.503Z,69.36
2019-03-24T18:13:08.662Z,69.21
2019-03-24T18:15:35.097Z,69.21
2019-03-24T18:18:01.255Z,69.44
2019-03-24T18:20:31.372Z,69.89
2019-03-24T18:22:57.579Z,69.87
2019-03-24T18:25:23.981Z,69.83
2019-03-24T18:27:50.150Z,70.20
2019-03-24T18:30:16.763Z,70.44
2019-03-24T18:32:43.202Z,70.91
2019-03-24T18:35:09.959Z,70.61
2019-03-24T18:37:36.408Z,70.50
2019-03-24T18:40:05.572Z,70.64
2019-03-24T18:42:31.694Z,70.44
2019-03-24T18:44:58.060Z,70.48
2019-03-24T18:47:24.238Z,70.67
2019-03-24T18:49:50.533Z,70.81
2019-03-24T18:52:22.649Z,71.13
2019-03-24T18:54:44.831Z,71.08
2019-03-24T18:57:11.157Z,71.12
2019-03-24T18:59:37.416Z,71.26
2019-03-24T19:02:03.824Z,71.00
2019-03-24T19:04:30.038Z,71.22
2019-03-24T19:06:56.600Z,71.51
2019-03-24T19:09:22.873Z,71.54
2019-03-24T19:11:49.141Z,71.70
2019-03-24T19:14:17.056Z,71.47
2019-03-24T19:16:43.179Z,71.48
2019-03-24T19:19:09.505Z,71.67
2019-03-24T19:21:35.919Z,71.58
2019-03-24T19:24:02.226Z,71.44
2019-03-24T19:26:28.431Z,71.62
2019-03-24T19:28:54.636Z,71.75
2019-03-24T19:31:20.882Z,71.82
2019-03-24T19:33:47.102Z,71.86
2019-03-24T19:36:13.420Z,72.05
2019-03-24T19:38:40.517Z,72.25
2019-03-24T19:41:06.772Z,72.34
2019-03-24T19:43:33.047Z,72.70
2019-03-24T19:45:59.309Z,72.37
2019-03-24T19:48:26.519Z,72.64
2019-03-24T19:50:52.706Z,72.99
2019-03-24T19:53:18.982Z,72.79
2019-03-24T19:55:45.315Z,73.14
2019-03-24T19:58:11.475Z,73.12
2019-03-24T20:00:37.681Z,73.33
2019-03-24T20:03:04.097Z,73.52
2019-03-24T20:05:30.309Z,73.63
2019-03-24T20:07:56.662Z,73.96
2019-03-24T20:10:22.976Z,73.99
2019-03-24T20:12:49.145Z,74.16
2019-03-24T20:15:15.690Z,74.33
2019-03-24T20:17:42.017Z,74.56
2019-03-24T20:20:08.813Z,74.79
2019-03-24T20:22:35.030Z,74.84
2019-03-24T20:25:01.127Z,75.13
2019-03-24T20:27:27.529Z,75.32
2019-03-24T20:29:53.651Z,75.20
2019-03-24T20:32:19.857Z,75.38
2019-03-24T20:34:46.160Z,75.60
2019-03-24T20:37:12.375Z,75.54
2019-03-24T20:39:38.518Z,75.88
2019-03-24T20:42:04.904Z,75.68
2019-03-24T20:44:31.175Z,75.89
2019-03-24T20:46:57.443Z,76.04
2019-03-24T20:49:23.711Z,76.05
2019-03-24T20:51:49.941Z,76.12
2019-03-24T20:54:16.108Z,76.27
2019-03-24T20:56:42.351Z,76.56
2019-03-24T20:59:08.646Z,76.61
2019-03-24T21:01:35.224Z,76.47
2019-03-24T21:04:01.463Z,76.48
2019-03-24T21:06:27.674Z,76.34
2019-03-24T21:08:53.910Z,76.54
2019-03-24T21:11:20.498Z,76.60
2019-03-24T21:13:46.795Z,76.56
2019-03-24T21:16:13.158Z,76.56
2019-03-24T21:18:39.486Z,76.78
2019-03-24T21:21:05.673Z,76.92
2019-03-24T21:23:31.915Z,76.81
2019-03-24T21:25:58.047Z,76.93
2019-03-24T21:28:25.482Z,77.19
2019-03-24T21:30:51.646Z,77.24
2019-03-24T21:33:17.959Z,77.30
2019-03-24T21:35:44.350Z,77.37
2019-03-24T21:38:10.512Z,77.39
2019-03-24T21:40:36.809Z,77.55
2019-03-24T21:43:03.415Z,77.49
2019-03-24T21:45:29.805Z,77.31
2019-03-24T21:47:56.512Z,77.47
2019-03-24T21:50:22.971Z,77.49
2019-03-24T21:52:49.344Z,77.72
2019-03-24T21:55:15.431Z,78.02
2019-03-24T21:57:41.746Z,78.00
2019-03-24T22:00:08.751Z,77.99
2019-03-24T22:02:35.198Z,78.07
2019-03-24T22:05:01.618Z,78.25
2019-03-24T22:07:28.938Z,78.18
2019-03-24T22:09:55.090Z,78.39
2019-03-24T22:12:21.266Z,78.37
2019-03-24T22:14:47.528Z,78.42
2019-03-24T22:17:13.753Z,78.42
2019-03-24T22:19:39.878Z,78.31
2019-03-24T22:22:06.182Z,78.38
2019-03-24T22:24:32.428Z,78.24
2019-03-24T22:26:58.744Z,78.39
2019-03-24T22:29:24.959Z,78.58
2019-03-24T22:31:51.080Z,78.40
2019-03-24T22:34:17.348Z,78.48
2019-03-24T22:36:43.503Z,78.51
2019-03-24T22:39:09.676Z,78.71
2019-03-24T22:41:35.960Z,78.34
2019-03-24T22:44:02.813Z,78.54
2019-03-24T22:46:28.977Z,78.32
2019-03-24T22:48:55.239Z,78.29
2019-03-24T22:51:21.600Z,78.14
2019-03-24T22:53:47.881Z,78.27
2019-03-24T22:56:14.152Z,78.04
2019-03-24T22:58:40.468Z,78.15
2019-03-24T23:01:06.777Z,78.15
2019-03-24T23:03:34.908Z,78.17
2019-03-24T23:06:01.192Z,78.02
2019-03-24T23:08:27.439Z,78.01
2019-03-24T23:10:53.741Z,78.13
2019-03-24T23:13:19.851Z,78.12
2019-03-24T23:15:46.083Z,78.21
2019-03-24T23:18:12.197Z,77.99
2019-03-24T23:20:38.426Z,78.03
2019-03-24T23:23:04.590Z,77.97
2019-03-24T23:25:30.763Z,77.91
2019-03-24T23:27:57.260Z,77.96
2019-03-24T23:30:23.438Z,77.99
2019-03-24T23:32:49.792Z,77.82
2019-03-24T23:35:16.061Z,77.41
2019-03-24T23:37:42.247Z,77.60
2019-03-24T23:40:08.793Z,77.57
2019-03-24T23:42:35.024Z,77.27
2019-03-24T23:45:01.134Z,77.24
2019-03-24T23:47:27.315Z,77.47
2019-03-24T23:49:53.473Z,77.58
2019-03-24T23:52:19.672Z,77.72
2019-03-24T23:54:45.919Z,77.80
2019-03-24T23:57:12.100Z,77.97
2019-03-24T23:59:38.331Z,78.06
